sensor_id;sensor_type;location;lat;lon;timestamp;P1;durP1;ratioP1;P2;durP2;ratioP2
1509;SDS011;746;48.688;9.428;2023-04-15T00:00:49;7.13;;;6.07;;
1509;SDS011;746;48.688;9.428;2023-04-15T00:03:11;8.37;;;6.53;;
1509;SDS011;746;48.688;9.428;2023-04-15T00:05:33;7.73;;;5.77;;
1509;SDS011;746;48.688;9.428;2023-04-15T00:07:54;6.87;;;5.73;;
1509;SDS011;746;48.688;9.428;2023-04-15T00:10:16;7.40;;;5.90;;
1509;SDS011;746;48.688;9.428;2023-04-15T00:12:37;7.00;;;6.13;;
1509;SDS011;746;48.688;9.428;2023-04-15T00:15:00;7.10;;;5.90;;
1509;SDS011;746;48.688;9.428;2023-04-15T00:17:21;9.97;;;6.20;;
1509;SDS011;746;48.688;9.428;2023-04-15T00:19:43;8.03;;;6.20;;
1509;SDS011;746;48.688;9.428;2023-04-15T00:22:07;7.07;;;6.07;;
1509;SDS011;746;48.688;9.428;2023-04-15T00:24:28;6.67;;;6.03;;
1509;SDS011;746;48.688;9.428;2023-04-15T00:26:50;7.70;;;6.27;;
1509;SDS011;746;48.688;9.428;2023-04-15T00:29:11;7.00;;;5.70;;
1509;SDS011;746;48.688;9.428;2023-04-15T00:31:34;8.17;;;6.40;;
1509;SDS011;746;48.688;9.428;2023-04-15T00:33:56;6.67;;;6.07;;
1509;SDS011;746;48.688;9.428;2023-04-15T00:36:18;6.80;;;6.07;;
1509;SDS011;746;48.688;9.428;2023-04-15T00:38:39;6.03;;;5.47;;
1509;SDS011;746;48.688;9.428;2023-04-15T00:41:00;7.00;;;5.80;;
1509;SDS011;746;48.688;9.428;2023-04-15T00:43:23;6.27;;;5.60;;
1509;SDS011;746;48.688;9.428;2023-04-15T00:45:45;7.60;;;5.97;;
1509;SDS011;746;48.688;9.428;2023-04-15T00:48:09;7.90;;;5.40;;
1509;SDS011;746;48.688;9.428;2023-04-15T00:50:31;5.97;;;5.33;;
1509;SDS011;746;48.688;9.428;2023-04-15T00:52:52;8.17;;;5.83;;
1509;SDS011;746;48.688;9.428;2023-04-15T00:55:14;7.20;;;6.50;;
1509;SDS011;746;48.688;9.428;2023-04-15T00:57:35;7.13;;;6.40;;
1509;SDS011;746;48.688;9.428;2023-04-15T00:59:57;10.97;;;6.53;;
1509;SDS011;746;48.688;9.428;2023-04-15T01:02:18;7.37;;;6.40;;
1509;SDS011;746;48.688;9.428;2023-04-15T01:04:41;8.13;;;5.97;;
1509;SDS011;746;48.688;9.428;2023-04-15T01:07:03;7.37;;;6.40;;
1509;SDS011;746;48.688;9.428;2023-04-15T01:09:24;9.10;;;6.57;;
1509;SDS011;746;48.688;9.428;2023-04-15T01:11:45;7.07;;;6.47;;
1509;SDS011;746;48.688;9.428;2023-04-15T01:14:07;8.70;;;6.93;;
1509;SDS011;746;48.688;9.428;2023-04-15T01:16:29;7.57;;;6.73;;
1509;SDS011;746;48.688;9.428;2023-04-15T01:18:50;7.37;;;6.47;;
1509;SDS011;746;48.688;9.428;2023-04-15T01:21:14;8.60;;;6.90;;
1509;SDS011;746;48.688;9.428;2023-04-15T01:23:36;8.57;;;7.00;;
1509;SDS011;746;48.688;9.428;2023-04-15T01:25:59;7.70;;;7.00;;
1509;SDS011;746;48.688;9.428;2023-04-15T01:28:20;7.23;;;6.53;;
1509;SDS011;746;48.688;9.428;2023-04-15T01:30:41;9.50;;;6.87;;
1509;SDS011;746;48.688;9.428;2023-04-15T01:33:03;9.83;;;6.77;;
1509;SDS011;746;48.688;9.428;2023-04-15T01:35:25;7.77;;;6.93;;
1509;SDS011;746;48.688;9.428;2023-04-15T01:37:47;7.80;;;7.00;;
1509;SDS011;746;48.688;9.428;2023-04-15T01:40:08;8.00;;;6.57;;
1509;SDS011;746;48.688;9.428;2023-04-15T01:42:30;6.53;;;5.93;;
1509;SDS011;746;48.688;9.428;2023-04-15T01:44:52;7.57;;;6.40;;
1509;SDS011;746;48.688;9.428;2023-04-15T01:47:14;8.50;;;6.67;;
1509;SDS011;746;48.688;9.428;2023-04-15T01:49:35;8.63;;;6.67;;
1509;SDS011;746;48.688;9.428;2023-04-15T01:51:57;7.10;;;6.40;;
1509;SDS011;746;48.688;9.428;2023-04-15T01:54:18;7.73;;;6.67;;
1509;SDS011;746;48.688;9.428;2023-04-15T01:56:39;6.60;;;5.97;;
1509;SDS011;746;48.688;9.428;2023-04-15T01:59:02;7.97;;;6.93;;
1509;SDS011;746;48.688;9.428;2023-04-15T02:01:23;7.47;;;6.50;;
1509;SDS011;746;48.688;9.428;2023-04-15T02:03:45;12.13;;;7.50;;
1509;SDS011;746;48.688;9.428;2023-04-15T02:06:07;8.50;;;7.00;;
1509;SDS011;746;48.688;9.428;2023-04-15T02:08:28;9.80;;;6.93;;
1509;SDS011;746;48.688;9.428;2023-04-15T02:10:49;9.37;;;7.57;;
1509;SDS011;746;48.688;9.428;2023-04-15T02:13:11;8.40;;;6.77;;
1509;SDS011;746;48.688;9.428;2023-04-15T02:15:34;8.33;;;6.47;;
1509;SDS011;746;48.688;9.428;2023-04-15T02:17:55;9.43;;;7.00;;
1509;SDS011;746;48.688;9.428;2023-04-15T02:20:18;8.43;;;6.63;;
1509;SDS011;746;48.688;9.428;2023-04-15T02:22:40;7.10;;;6.33;;
1509;SDS011;746;48.688;9.428;2023-04-15T02:25:01;8.33;;;6.50;;
1509;SDS011;746;48.688;9.428;2023-04-15T02:27:22;6.97;;;6.10;;
1509;SDS011;746;48.688;9.428;2023-04-15T02:29:44;9.53;;;6.63;;
1509;SDS011;746;48.688;9.428;2023-04-15T02:32:06;8.70;;;6.23;;
1509;SDS011;746;48.688;9.428;2023-04-15T02:34:28;6.77;;;6.17;;
1509;SDS011;746;48.688;9.428;2023-04-15T02:36:50;8.20;;;6.40;;
1509;SDS011;746;48.688;9.428;2023-04-15T02:39:14;9.30;;;6.70;;
1509;SDS011;746;48.688;9.428;2023-04-15T02:41:37;7.90;;;7.20;;
1509;SDS011;746;48.688;9.428;2023-04-15T02:43:59;8.47;;;7.37;;
1509;SDS011;746;48.688;9.428;2023-04-15T02:46:20;8.43;;;7.23;;
1509;SDS011;746;48.688;9.428;2023-04-15T02:48:43;7.70;;;7.00;;
1509;SDS011;746;48.688;9.428;2023-04-15T02:51:14;8.73;;;6.97;;
1509;SDS011;746;48.688;9.428;2023-04-15T02:53:35;7.33;;;6.60;;
1509;SDS011;746;48.688;9.428;2023-04-15T02:55:57;7.30;;;6.37;;
1509;SDS011;746;48.688;9.428;2023-04-15T02:58:19;8.43;;;6.60;;
1509;SDS011;746;48.688;9.428;2023-04-15T03:00:40;8.57;;;7.67;;
1509;SDS011;746;48.688;9.428;2023-04-15T03:03:03;7.53;;;6.73;;
1509;SDS011;746;48.688;9.428;2023-04-15T03:05:26;7.67;;;6.83;;
1509;SDS011;746;48.688;9.428;2023-04-15T03:07:47;8.80;;;6.50;;
1509;SDS011;746;48.688;9.428;2023-04-15T03:10:09;8.03;;;6.33;;
1509;SDS011;746;48.688;9.428;2023-04-15T03:12:30;7.07;;;6.33;;
1509;SDS011;746;48.688;9.428;2023-04-15T03:14:52;9.43;;;6.60;;
1509;SDS011;746;48.688;9.428;2023-04-15T03:17:13;11.23;;;6.80;;
1509;SDS011;746;48.688;9.428;2023-04-15T03:19:35;9.03;;;6.27;;
1509;SDS011;746;48.688;9.428;2023-04-15T03:21:57;7.47;;;6.23;;
1509;SDS011;746;48.688;9.428;2023-04-15T03:24:19;6.93;;;6.40;;
1509;SDS011;746;48.688;9.428;2023-04-15T03:26:40;7.83;;;6.67;;
1509;SDS011;746;48.688;9.428;2023-04-15T03:29:02;8.77;;;6.60;;
1509;SDS011;746;48.688;9.428;2023-04-15T03:31:23;7.27;;;6.37;;
1509;SDS011;746;48.688;9.428;2023-04-15T03:33:45;6.83;;;6.13;;
1509;SDS011;746;48.688;9.428;2023-04-15T03:36:06;7.83;;;6.20;;
1509;SDS011;746;48.688;9.428;2023-04-15T03:38:29;7.17;;;6.37;;
1509;SDS011;746;48.688;9.428;2023-04-15T03:40:50;7.90;;;6.17;;
1509;SDS011;746;48.688;9.428;2023-04-15T03:43:11;7.53;;;6.50;;
1509;SDS011;746;48.688;9.428;2023-04-15T03:45:33;7.30;;;6.50;;
1509;SDS011;746;48.688;9.428;2023-04-15T03:47:54;11.00;;;6.50;;
1509;SDS011;746;48.688;9.428;2023-04-15T03:50:30;7.13;;;6.40;;
1509;SDS011;746;48.688;9.428;2023-04-15T03:52:51;9.53;;;7.03;;
1509;SDS011;746;48.688;9.428;2023-04-15T03:55:14;7.27;;;6.40;;
1509;SDS011;746;48.688;9.428;2023-04-15T03:57:35;6.70;;;6.07;;
1509;SDS011;746;48.688;9.428;2023-04-15T03:59:58;7.30;;;5.80;;
1509;SDS011;746;48.688;9.428;2023-04-15T04:02:19;8.13;;;6.23;;
1509;SDS011;746;48.688;9.428;2023-04-15T04:04:42;7.23;;;6.53;;
1509;SDS011;746;48.688;9.428;2023-04-15T04:07:04;7.60;;;6.63;;
1509;SDS011;746;48.688;9.428;2023-04-15T04:09:26;8.27;;;5.90;;
1509;SDS011;746;48.688;9.428;2023-04-15T04:11:49;6.47;;;5.87;;
1509;SDS011;746;48.688;9.428;2023-04-15T04:14:10;6.30;;;5.63;;
1509;SDS011;746;48.688;9.428;2023-04-15T04:16:31;6.10;;;5.50;;
1509;SDS011;746;48.688;9.428;2023-04-15T04:18:53;7.03;;;5.93;;
1509;SDS011;746;48.688;9.428;2023-04-15T04:21:14;7.40;;;6.53;;
1509;SDS011;746;48.688;9.428;2023-04-15T04:23:35;6.90;;;6.10;;
1509;SDS011;746;48.688;9.428;2023-04-15T04:25:56;6.97;;;6.13;;
1509;SDS011;746;48.688;9.428;2023-04-15T04:28:19;6.97;;;6.37;;
1509;SDS011;746;48.688;9.428;2023-04-15T04:30:41;6.83;;;5.90;;
1509;SDS011;746;48.688;9.428;2023-04-15T04:33:02;8.03;;;5.77;;
1509;SDS011;746;48.688;9.428;2023-04-15T04:35:24;6.30;;;5.80;;
1509;SDS011;746;48.688;9.428;2023-04-15T04:37:46;6.80;;;6.17;;
1509;SDS011;746;48.688;9.428;2023-04-15T04:40:08;6.73;;;5.83;;
1509;SDS011;746;48.688;9.428;2023-04-15T04:42:30;9.00;;;6.87;;
1509;SDS011;746;48.688;9.428;2023-04-15T04:44:52;7.50;;;6.70;;
1509;SDS011;746;48.688;9.428;2023-04-15T04:47:14;7.93;;;6.80;;
1509;SDS011;746;48.688;9.428;2023-04-15T04:49:35;7.43;;;6.47;;
1509;SDS011;746;48.688;9.428;2023-04-15T04:51:56;7.07;;;6.30;;
1509;SDS011;746;48.688;9.428;2023-04-15T04:54:18;8.17;;;6.80;;
1509;SDS011;746;48.688;9.428;2023-04-15T04:56:40;7.13;;;6.27;;
1509;SDS011;746;48.688;9.428;2023-04-15T04:59:01;7.77;;;6.27;;
1509;SDS011;746;48.688;9.428;2023-04-15T05:01:23;8.33;;;6.20;;
1509;SDS011;746;48.688;9.428;2023-04-15T05:03:45;9.87;;;6.10;;
1509;SDS011;746;48.688;9.428;2023-04-15T05:06:07;6.63;;;6.03;;
1509;SDS011;746;48.688;9.428;2023-04-15T05:08:28;6.73;;;5.77;;
1509;SDS011;746;48.688;9.428;2023-04-15T05:10:51;7.00;;;6.10;;
1509;SDS011;746;48.688;9.428;2023-04-15T05:13:12;9.23;;;5.93;;
1509;SDS011;746;48.688;9.428;2023-04-15T05:15:33;7.17;;;6.37;;
1509;SDS011;746;48.688;9.428;2023-04-15T05:17:57;7.00;;;6.30;;
1509;SDS011;746;48.688;9.428;2023-04-15T05:20:18;6.80;;;6.10;;
1509;SDS011;746;48.688;9.428;2023-04-15T05:22:39;7.77;;;5.90;;
1509;SDS011;746;48.688;9.428;2023-04-15T05:25:00;6.50;;;5.87;;
1509;SDS011;746;48.688;9.428;2023-04-15T05:27:22;7.60;;;6.27;;
1509;SDS011;746;48.688;9.428;2023-04-15T05:29:43;7.13;;;5.73;;
1509;SDS011;746;48.688;9.428;2023-04-15T05:32:05;6.97;;;6.23;;
1509;SDS011;746;48.688;9.428;2023-04-15T05:34:28;8.03;;;6.43;;
1509;SDS011;746;48.688;9.428;2023-04-15T05:36:49;6.43;;;5.80;;
1509;SDS011;746;48.688;9.428;2023-04-15T05:39:11;7.57;;;6.43;;
1509;SDS011;746;48.688;9.428;2023-04-15T05:41:32;7.60;;;6.20;;
1509;SDS011;746;48.688;9.428;2023-04-15T05:43:54;7.10;;;6.37;;
1509;SDS011;746;48.688;9.428;2023-04-15T05:46:15;7.03;;;6.33;;
1509;SDS011;746;48.688;9.428;2023-04-15T05:48:36;8.13;;;6.23;;
1509;SDS011;746;48.688;9.428;2023-04-15T05:50:59;9.37;;;6.20;;
1509;SDS011;746;48.688;9.428;2023-04-15T05:53:20;8.13;;;6.57;;
1509;SDS011;746;48.688;9.428;2023-04-15T05:55:42;7.57;;;6.57;;
1509;SDS011;746;48.688;9.428;2023-04-15T05:58:03;7.97;;;6.60;;
1509;SDS011;746;48.688;9.428;2023-04-15T06:00:24;7.03;;;6.03;;
1509;SDS011;746;48.688;9.428;2023-04-15T06:02:46;8.37;;;6.30;;
1509;SDS011;746;48.688;9.428;2023-04-15T06:05:07;9.70;;;6.37;;
1509;SDS011;746;48.688;9.428;2023-04-15T06:07:32;7.73;;;6.30;;
1509;SDS011;746;48.688;9.428;2023-04-15T06:09:53;6.87;;;6.17;;
1509;SDS011;746;48.688;9.428;2023-04-15T06:12:14;9.23;;;6.57;;
1509;SDS011;746;48.688;9.428;2023-04-15T06:14:36;7.90;;;6.60;;
1509;SDS011;746;48.688;9.428;2023-04-15T06:16:57;9.63;;;7.23;;
1509;SDS011;746;48.688;9.428;2023-04-15T06:19:18;7.63;;;6.90;;
1509;SDS011;746;48.688;9.428;2023-04-15T06:21:40;8.43;;;6.40;;
1509;SDS011;746;48.688;9.428;2023-04-15T06:24:03;8.73;;;6.50;;
1509;SDS011;746;48.688;9.428;2023-04-15T06:26:24;8.23;;;6.57;;
1509;SDS011;746;48.688;9.428;2023-04-15T06:28:46;7.70;;;6.27;;
1509;SDS011;746;48.688;9.428;2023-04-15T06:31:07;7.13;;;6.50;;
1509;SDS011;746;48.688;9.428;2023-04-15T06:33:28;7.63;;;6.03;;
1509;SDS011;746;48.688;9.428;2023-04-15T06:35:50;6.93;;;6.07;;
1509;SDS011;746;48.688;9.428;2023-04-15T06:38:12;7.90;;;6.07;;
1509;SDS011;746;48.688;9.428;2023-04-15T06:40:34;6.67;;;6.00;;
1509;SDS011;746;48.688;9.428;2023-04-15T06:42:56;6.70;;;5.97;;
1509;SDS011;746;48.688;9.428;2023-04-15T06:45:17;6.97;;;6.00;;
1509;SDS011;746;48.688;9.428;2023-04-15T06:47:38;9.70;;;6.00;;
1509;SDS011;746;48.688;9.428;2023-04-15T06:50:00;6.80;;;6.10;;
1509;SDS011;746;48.688;9.428;2023-04-15T06:52:22;6.27;;;5.37;;
1509;SDS011;746;48.688;9.428;2023-04-15T06:54:44;8.13;;;5.47;;
1509;SDS011;746;48.688;9.428;2023-04-15T06:57:06;7.13;;;5.70;;
1509;SDS011;746;48.688;9.428;2023-04-15T06:59:28;6.07;;;5.47;;
1509;SDS011;746;48.688;9.428;2023-04-15T07:01:49;6.10;;;5.50;;
1509;SDS011;746;48.688;9.428;2023-04-15T07:04:11;5.30;;;4.80;;
1509;SDS011;746;48.688;9.428;2023-04-15T07:06:32;6.00;;;5.40;;
1509;SDS011;746;48.688;9.428;2023-04-15T07:08:54;5.70;;;5.10;;
1509;SDS011;746;48.688;9.428;2023-04-15T07:11:16;6.27;;;5.33;;
1509;SDS011;746;48.688;9.428;2023-04-15T07:13:38;6.20;;;4.93;;
1509;SDS011;746;48.688;9.428;2023-04-15T07:16:00;6.03;;;5.43;;
1509;SDS011;746;48.688;9.428;2023-04-15T07:18:21;6.03;;;5.23;;
1509;SDS011;746;48.688;9.428;2023-04-15T07:20:42;6.73;;;5.30;;
1509;SDS011;746;48.688;9.428;2023-04-15T07:23:04;5.40;;;4.93;;
1509;SDS011;746;48.688;9.428;2023-04-15T07:25:25;5.83;;;5.33;;
1509;SDS011;746;48.688;9.428;2023-04-15T07:27:46;6.10;;;5.50;;
1509;SDS011;746;48.688;9.428;2023-04-15T07:30:10;6.03;;;5.53;;
1509;SDS011;746;48.688;9.428;2023-04-15T07:32:31;5.63;;;5.00;;
1509;SDS011;746;48.688;9.428;2023-04-15T07:34:52;7.20;;;4.73;;
1509;SDS011;746;48.688;9.428;2023-04-15T07:37:14;7.13;;;5.03;;
1509;SDS011;746;48.688;9.428;2023-04-15T07:39:35;5.13;;;4.73;;
1509;SDS011;746;48.688;9.428;2023-04-15T07:41:57;5.57;;;5.00;;
1509;SDS011;746;48.688;9.428;2023-04-15T07:44:18;5.80;;;4.73;;
1509;SDS011;746;48.688;9.428;2023-04-15T07:46:41;7.00;;;5.03;;
1509;SDS011;746;48.688;9.428;2023-04-15T07:49:02;7.60;;;5.20;;
1509;SDS011;746;48.688;9.428;2023-04-15T07:51:23;6.17;;;5.27;;
1509;SDS011;746;48.688;9.428;2023-04-15T07:53:45;7.03;;;4.87;;
1509;SDS011;746;48.688;9.428;2023-04-15T07:56:06;7.83;;;4.80;;
1509;SDS011;746;48.688;9.428;2023-04-15T07:58:27;6.57;;;4.73;;
1509;SDS011;746;48.688;9.428;2023-04-15T08:00:49;7.80;;;5.23;;
1509;SDS011;746;48.688;9.428;2023-04-15T08:03:11;5.40;;;4.73;;
1509;SDS011;746;48.688;9.428;2023-04-15T08:05:32;5.47;;;4.97;;
1509;SDS011;746;48.688;9.428;2023-04-15T08:07:54;8.73;;;5.20;;
1509;SDS011;746;48.688;9.428;2023-04-15T08:10:15;5.80;;;5.03;;
1509;SDS011;746;48.688;9.428;2023-04-15T08:12:36;5.40;;;4.90;;
1509;SDS011;746;48.688;9.428;2023-04-15T08:14:58;6.60;;;4.90;;
1509;SDS011;746;48.688;9.428;2023-04-15T08:17:19;8.57;;;5.10;;
1509;SDS011;746;48.688;9.428;2023-04-15T08:19:42;6.37;;;4.77;;
1509;SDS011;746;48.688;9.428;2023-04-15T08:22:03;6.10;;;4.97;;
1509;SDS011;746;48.688;9.428;2023-04-15T08:24:30;5.67;;;5.13;;
1509;SDS011;746;48.688;9.428;2023-04-15T08:26:51;7.60;;;5.47;;
1509;SDS011;746;48.688;9.428;2023-04-15T08:29:12;6.13;;;4.33;;
1509;SDS011;746;48.688;9.428;2023-04-15T08:31:34;6.57;;;4.93;;
1509;SDS011;746;48.688;9.428;2023-04-15T08:33:55;12.17;;;5.60;;
1509;SDS011;746;48.688;9.428;2023-04-15T08:36:18;4.97;;;4.20;;
1509;SDS011;746;48.688;9.428;2023-04-15T08:38:39;5.83;;;4.40;;
1509;SDS011;746;48.688;9.428;2023-04-15T08:41:02;5.50;;;4.60;;
1509;SDS011;746;48.688;9.428;2023-04-15T08:43:26;6.33;;;4.30;;
1509;SDS011;746;48.688;9.428;2023-04-15T08:45:49;6.63;;;4.57;;
1509;SDS011;746;48.688;9.428;2023-04-15T08:48:11;10.07;;;5.47;;
1509;SDS011;746;48.688;9.428;2023-04-15T08:50:35;25.60;;;5.90;;
1509;SDS011;746;48.688;9.428;2023-04-15T08:52:58;7.07;;;4.40;;
1509;SDS011;746;48.688;9.428;2023-04-15T08:55:19;5.93;;;3.97;;
1509;SDS011;746;48.688;9.428;2023-04-15T08:57:41;5.87;;;3.80;;
1509;SDS011;746;48.688;9.428;2023-04-15T09:00:04;6.87;;;4.57;;
1509;SDS011;746;48.688;9.428;2023-04-15T09:02:26;5.57;;;4.10;;
1509;SDS011;746;48.688;9.428;2023-04-15T09:04:47;7.53;;;4.67;;
1509;SDS011;746;48.688;9.428;2023-04-15T09:07:08;4.50;;;3.80;;
1509;SDS011;746;48.688;9.428;2023-04-15T09:09:31;6.33;;;4.20;;
1509;SDS011;746;48.688;9.428;2023-04-15T09:11:52;5.50;;;4.20;;
1509;SDS011;746;48.688;9.428;2023-04-15T09:14:13;7.27;;;4.20;;
1509;SDS011;746;48.688;9.428;2023-04-15T09:19:19;5.73;;;3.77;;
1509;SDS011;746;48.688;9.428;2023-04-15T09:21:40;4.47;;;3.87;;
1509;SDS011;746;48.688;9.428;2023-04-15T09:24:02;5.50;;;4.33;;
1509;SDS011;746;48.688;9.428;2023-04-15T09:26:35;5.20;;;3.83;;
1509;SDS011;746;48.688;9.428;2023-04-15T09:29:01;4.10;;;3.50;;
1509;SDS011;746;48.688;9.428;2023-04-15T09:31:25;8.10;;;4.10;;
1509;SDS011;746;48.688;9.428;2023-04-15T09:33:53;4.60;;;3.80;;
1509;SDS011;746;48.688;9.428;2023-04-15T09:36:15;6.23;;;4.23;;
1509;SDS011;746;48.688;9.428;2023-04-15T09:38:36;5.23;;;3.80;;
1509;SDS011;746;48.688;9.428;2023-04-15T09:41:15;4.23;;;3.83;;
1509;SDS011;746;48.688;9.428;2023-04-15T09:43:39;4.80;;;4.00;;
1509;SDS011;746;48.688;9.428;2023-04-15T09:46:00;6.60;;;4.03;;
1509;SDS011;746;48.688;9.428;2023-04-15T09:48:22;4.37;;;3.70;;
1509;SDS011;746;48.688;9.428;2023-04-15T09:50:46;5.40;;;4.00;;
1509;SDS011;746;48.688;9.428;2023-04-15T09:53:08;4.40;;;3.67;;
1509;SDS011;746;48.688;9.428;2023-04-15T09:55:29;7.27;;;3.60;;
1509;SDS011;746;48.688;9.428;2023-04-15T09:57:53;3.10;;;2.80;;
1509;SDS011;746;48.688;9.428;2023-04-15T10:00:16;5.40;;;3.00;;
1509;SDS011;746;48.688;9.428;2023-04-15T10:02:38;3.57;;;2.87;;
1509;SDS011;746;48.688;9.428;2023-04-15T10:05:00;5.60;;;3.03;;
1509;SDS011;746;48.688;9.428;2023-04-15T10:07:22;4.00;;;2.70;;
1509;SDS011;746;48.688;9.428;2023-04-15T10:09:44;4.03;;;2.43;;
1509;SDS011;746;48.688;9.428;2023-04-15T10:12:06;3.93;;;2.77;;
1509;SDS011;746;48.688;9.428;2023-04-15T10:14:27;3.43;;;2.40;;
1509;SDS011;746;48.688;9.428;2023-04-15T10:16:51;2.87;;;2.43;;
1509;SDS011;746;48.688;9.428;2023-04-15T10:19:12;4.57;;;3.10;;
1509;SDS011;746;48.688;9.428;2023-04-15T10:21:35;4.17;;;2.77;;
1509;SDS011;746;48.688;9.428;2023-04-15T10:23:57;5.33;;;2.87;;
1509;SDS011;746;48.688;9.428;2023-04-15T10:26:19;4.73;;;3.00;;
1509;SDS011;746;48.688;9.428;2023-04-15T10:28:40;5.27;;;2.40;;
1509;SDS011;746;48.688;9.428;2023-04-15T10:31:01;4.67;;;2.60;;
1509;SDS011;746;48.688;9.428;2023-04-15T10:33:25;4.37;;;2.60;;
1509;SDS011;746;48.688;9.428;2023-04-15T10:35:47;3.00;;;2.70;;
1509;SDS011;746;48.688;9.428;2023-04-15T10:40:46;6.77;;;5.70;;
1509;SDS011;746;48.688;9.428;2023-04-15T10:43:08;5.03;;;3.33;;
1509;SDS011;746;48.688;9.428;2023-04-15T10:45:45;4.67;;;2.67;;
1509;SDS011;746;48.688;9.428;2023-04-15T10:48:08;24.20;;;21.07;;
1509;SDS011;746;48.688;9.428;2023-04-15T10:50:33;5.93;;;3.43;;
1509;SDS011;746;48.688;9.428;2023-04-15T10:52:54;7.47;;;6.77;;
1509;SDS011;746;48.688;9.428;2023-04-15T10:55:17;5.13;;;3.53;;
1509;SDS011;746;48.688;9.428;2023-04-15T10:57:39;7.70;;;3.23;;
1509;SDS011;746;48.688;9.428;2023-04-15T11:00:02;9.20;;;3.57;;
1509;SDS011;746;48.688;9.428;2023-04-15T11:02:37;4.47;;;3.40;;
1509;SDS011;746;48.688;9.428;2023-04-15T11:04:59;4.87;;;3.03;;
1509;SDS011;746;48.688;9.428;2023-04-15T11:07:35;3.57;;;3.07;;
1509;SDS011;746;48.688;9.428;2023-04-15T11:09:57;3.97;;;3.37;;
1509;SDS011;746;48.688;9.428;2023-04-15T11:12:18;4.07;;;3.10;;
1509;SDS011;746;48.688;9.428;2023-04-15T11:14:40;3.37;;;3.10;;
1509;SDS011;746;48.688;9.428;2023-04-15T11:17:02;5.63;;;3.57;;
1509;SDS011;746;48.688;9.428;2023-04-15T11:19:23;4.83;;;3.20;;
1509;SDS011;746;48.688;9.428;2023-04-15T11:21:45;4.40;;;4.00;;
1509;SDS011;746;48.688;9.428;2023-04-15T11:24:08;7.33;;;3.87;;
1509;SDS011;746;48.688;9.428;2023-04-15T11:26:29;5.77;;;3.97;;
1509;SDS011;746;48.688;9.428;2023-04-15T11:28:51;6.53;;;3.87;;
1509;SDS011;746;48.688;9.428;2023-04-15T11:31:13;9.33;;;4.40;;
1509;SDS011;746;48.688;9.428;2023-04-15T11:33:35;6.73;;;4.50;;
1509;SDS011;746;48.688;9.428;2023-04-15T11:35:56;4.90;;;4.40;;
1509;SDS011;746;48.688;9.428;2023-04-15T11:38:17;5.70;;;4.40;;
1509;SDS011;746;48.688;9.428;2023-04-15T11:40:40;5.73;;;3.80;;
1509;SDS011;746;48.688;9.428;2023-04-15T11:43:06;7.57;;;4.70;;
1509;SDS011;746;48.688;9.428;2023-04-15T11:45:28;6.50;;;3.80;;
1509;SDS011;746;48.688;9.428;2023-04-15T11:47:49;5.00;;;4.03;;
1509;SDS011;746;48.688;9.428;2023-04-15T11:50:14;5.40;;;4.00;;
1509;SDS011;746;48.688;9.428;2023-04-15T11:52:35;5.40;;;4.17;;
1509;SDS011;746;48.688;9.428;2023-04-15T11:55:01;5.60;;;4.17;;
1509;SDS011;746;48.688;9.428;2023-04-15T11:57:25;4.10;;;3.70;;
1509;SDS011;746;48.688;9.428;2023-04-15T11:59:53;6.43;;;3.70;;
1509;SDS011;746;48.688;9.428;2023-04-15T12:02:15;4.73;;;3.70;;
1509;SDS011;746;48.688;9.428;2023-04-15T12:04:36;5.13;;;3.90;;
1509;SDS011;746;48.688;9.428;2023-04-15T12:07:03;12.37;;;9.47;;
1509;SDS011;746;48.688;9.428;2023-04-15T12:09:24;5.33;;;3.90;;
1509;SDS011;746;48.688;9.428;2023-04-15T12:11:47;5.13;;;4.37;;
1509;SDS011;746;48.688;9.428;2023-04-15T12:14:11;4.03;;;3.63;;
1509;SDS011;746;48.688;9.428;2023-04-15T12:16:32;3.93;;;3.63;;
1509;SDS011;746;48.688;9.428;2023-04-15T12:19:08;6.07;;;4.07;;
1509;SDS011;746;48.688;9.428;2023-04-15T12:21:32;3.77;;;3.37;;
1509;SDS011;746;48.688;9.428;2023-04-15T12:23:54;5.33;;;3.43;;
1509;SDS011;746;48.688;9.428;2023-04-15T12:26:15;3.97;;;3.50;;
1509;SDS011;746;48.688;9.428;2023-04-15T12:28:37;5.20;;;3.90;;
1509;SDS011;746;48.688;9.428;2023-04-15T12:31:06;7.00;;;4.27;;
1509;SDS011;746;48.688;9.428;2023-04-15T12:33:31;5.47;;;4.03;;
1509;SDS011;746;48.688;9.428;2023-04-15T12:35:53;6.03;;;4.90;;
1509;SDS011;746;48.688;9.428;2023-04-15T12:38:14;4.63;;;4.20;;
1509;SDS011;746;48.688;9.428;2023-04-15T12:40:36;8.13;;;5.53;;
1509;SDS011;746;48.688;9.428;2023-04-15T12:42:57;7.10;;;5.87;;
1509;SDS011;746;48.688;9.428;2023-04-15T12:45:18;13.60;;;7.70;;
1509;SDS011;746;48.688;9.428;2023-04-15T12:47:42;8.17;;;6.10;;
1509;SDS011;746;48.688;9.428;2023-04-15T12:50:04;8.10;;;7.27;;
1509;SDS011;746;48.688;9.428;2023-04-15T12:52:25;7.70;;;6.43;;
1509;SDS011;746;48.688;9.428;2023-04-15T12:54:47;6.57;;;5.20;;
1509;SDS011;746;48.688;9.428;2023-04-15T12:57:08;6.23;;;5.60;;
1509;SDS011;746;48.688;9.428;2023-04-15T12:59:29;6.10;;;5.37;;
1509;SDS011;746;48.688;9.428;2023-04-15T13:01:50;7.57;;;4.80;;
1509;SDS011;746;48.688;9.428;2023-04-15T13:04:14;5.60;;;4.77;;
1509;SDS011;746;48.688;9.428;2023-04-15T13:06:36;6.13;;;4.60;;
1509;SDS011;746;48.688;9.428;2023-04-15T13:08:57;7.87;;;4.10;;
1509;SDS011;746;48.688;9.428;2023-04-15T13:11:19;4.20;;;3.77;;
1509;SDS011;746;48.688;9.428;2023-04-15T13:13:40;6.10;;;4.13;;
1509;SDS011;746;48.688;9.428;2023-04-15T13:16:01;4.37;;;4.07;;
1509;SDS011;746;48.688;9.428;2023-04-15T13:18:23;5.97;;;4.70;;
1509;SDS011;746;48.688;9.428;2023-04-15T13:20:45;4.80;;;4.40;;
1509;SDS011;746;48.688;9.428;2023-04-15T13:23:07;6.87;;;5.10;;
1509;SDS011;746;48.688;9.428;2023-04-15T13:25:28;4.50;;;4.10;;
1509;SDS011;746;48.688;9.428;2023-04-15T13:27:50;4.43;;;4.03;;
1509;SDS011;746;48.688;9.428;2023-04-15T13:30:11;5.23;;;4.83;;
1509;SDS011;746;48.688;9.428;2023-04-15T13:32:32;4.50;;;3.77;;
1509;SDS011;746;48.688;9.428;2023-04-15T13:34:54;5.13;;;3.90;;
1509;SDS011;746;48.688;9.428;2023-04-15T13:37:17;4.97;;;3.93;;
1509;SDS011;746;48.688;9.428;2023-04-15T13:39:38;4.17;;;3.30;;
1509;SDS011;746;48.688;9.428;2023-04-15T13:41:59;3.43;;;3.23;;
1509;SDS011;746;48.688;9.428;2023-04-15T13:44:21;3.53;;;2.90;;
1509;SDS011;746;48.688;9.428;2023-04-15T13:46:43;3.23;;;3.00;;
1509;SDS011;746;48.688;9.428;2023-04-15T13:49:04;2.80;;;2.60;;
1509;SDS011;746;48.688;9.428;2023-04-15T13:51:26;2.77;;;2.00;;
1509;SDS011;746;48.688;9.428;2023-04-15T13:53:48;2.90;;;2.10;;
1509;SDS011;746;48.688;9.428;2023-04-15T13:56:10;2.67;;;2.10;;
1509;SDS011;746;48.688;9.428;2023-04-15T13:58:31;2.83;;;2.00;;
1509;SDS011;746;48.688;9.428;2023-04-15T14:00:53;2.27;;;2.07;;
1509;SDS011;746;48.688;9.428;2023-04-15T14:03:14;2.00;;;1.90;;
1509;SDS011;746;48.688;9.428;2023-04-15T14:05:35;2.57;;;2.37;;
1509;SDS011;746;48.688;9.428;2023-04-15T14:07:57;2.20;;;1.90;;
1509;SDS011;746;48.688;9.428;2023-04-15T14:10:20;1.90;;;1.70;;
1509;SDS011;746;48.688;9.428;2023-04-15T14:12:42;2.00;;;1.87;;
1509;SDS011;746;48.688;9.428;2023-04-15T14:15:03;3.77;;;1.97;;
1509;SDS011;746;48.688;9.428;2023-04-15T14:17:25;3.37;;;1.80;;
1509;SDS011;746;48.688;9.428;2023-04-15T14:19:46;2.20;;;2.03;;
1509;SDS011;746;48.688;9.428;2023-04-15T14:22:08;3.17;;;2.70;;
1509;SDS011;746;48.688;9.428;2023-04-15T14:24:29;2.20;;;2.00;;
1509;SDS011;746;48.688;9.428;2023-04-15T14:26:52;2.00;;;1.90;;
1509;SDS011;746;48.688;9.428;2023-04-15T14:29:13;2.80;;;2.50;;
1509;SDS011;746;48.688;9.428;2023-04-15T14:31:34;1.80;;;1.70;;
1509;SDS011;746;48.688;9.428;2023-04-15T14:33:58;2.50;;;1.77;;
1509;SDS011;746;48.688;9.428;2023-04-15T14:36:19;2.50;;;1.70;;
1509;SDS011;746;48.688;9.428;2023-04-15T14:38:40;2.83;;;1.50;;
1509;SDS011;746;48.688;9.428;2023-04-15T14:41:02;1.70;;;1.60;;
1509;SDS011;746;48.688;9.428;2023-04-15T14:43:25;1.80;;;1.63;;
1509;SDS011;746;48.688;9.428;2023-04-15T14:45:46;1.87;;;1.77;;
1509;SDS011;746;48.688;9.428;2023-04-15T14:48:08;2.27;;;1.70;;
1509;SDS011;746;48.688;9.428;2023-04-15T14:50:31;1.80;;;1.70;;
1509;SDS011;746;48.688;9.428;2023-04-15T14:52:52;1.43;;;1.33;;
1509;SDS011;746;48.688;9.428;2023-04-15T14:55:13;2.27;;;1.60;;
1509;SDS011;746;48.688;9.428;2023-04-15T14:57:35;2.23;;;2.03;;
1509;SDS011;746;48.688;9.428;2023-04-15T14:59:58;1.83;;;1.60;;
1509;SDS011;746;48.688;9.428;2023-04-15T15:02:19;2.17;;;2.00;;